Latest Weather Observations for Neptune Island

IDS60801

Issued at 8:05 am CDT Sunday 26 October 2014 (issued every 30 minutes, with the page automatically refreshed every 10 minutes)

About weather observations | Map of weather stations | Latest weather observations for SA | Other Formats
Station Details ID: 018115 Name: NEPTUNE ISLAND Lat: -35.34 Lon: 136.12 Height: 32.0 m
Data from the previous 72 hours. | See also: Recent months at Neptune Island
Date/Time
CDT
Temp
°C
App
Temp
°C
Dew
Point
Rel
Hum
%
Delta-T
°C
Wind Press
QNH
hPa
Press
MSL
hPa
Rain
since 9 am
mm
Dir
 
Spd
km/h
Gust
km/h
Spd
kts
Gust
kts
26/08:00am 15.8 11.9 14.5 92 0.7 NE 28 41 15 22 1009.1 1009.1 0.0
26/07:30am 15.5 10.6 14.2 92 0.7 NE 33 43 18 23 1009.3 1009.3 0.0
26/07:00am 15.3 8.8 14.0 92 0.7 NE 41 48 22 26 1009.2 1009.2 0.0
26/06:30am 15.3 9.9 14.0 92 0.7 ENE 35 41 19 22 1009.8 1009.8 0.0
26/06:19am 15.2 11.5 13.9 92 0.7 ENE 26 32 14 17 1010.4 1010.4 0.0
26/06:00am 15.3 14.5 14.0 92 0.7 ENE 11 13 6 7 1012.4 1012.4 0.0
26/05:30am 15.2 10.7 13.7 91 0.8 N 30 35 16 19 1012.7 1012.7 0.0
26/05:15am 15.3 10.4 13.8 91 0.8 N 32 35 17 19 1013.7 1013.7 0.0
26/05:08am 15.3 8.3 13.7 90 0.9 NNW 43 61 23 33 1014.9 1014.9 0.0
26/05:04am 15.3 9.1 13.8 91 0.8 NNW 39 54 21 29 1015.6 1015.5 0.0
26/05:00am 15.0 12.5 13.4 90 0.9 NNE 19 26 10 14 1012.9 1012.9 0.0
26/04:30am 15.0 11.9 13.4 90 0.9 ENE 22 28 12 15 1011.8 1011.8 0.0
26/04:00am 15.2 11.4 13.6 90 0.9 ENE 26 30 14 16 1011.4 1011.4 0.0
26/03:30am 15.2 11.7 13.4 89 1.0 NE 24 30 13 16 1011.3 1011.3 0.0
26/03:00am 15.3 12.8 13.5 89 1.0 NE 19 26 10 14 1012.0 1012.0 0.0
26/02:30am 15.4 12.7 13.6 89 1.0 NNE 20 32 11 17 1012.5 1012.5 0.0
26/02:00am 15.6 12.9 13.6 88 1.1 NNE 20 26 11 14 1012.7 1012.7 0.0
26/01:30am 15.6 12.9 13.6 88 1.1 NNE 20 30 11 16 1012.8 1012.8 0.0
26/01:00am 15.7 12.6 13.5 87 1.2 NNE 22 30 12 16 1013.0 1013.0 0.0
26/12:30am 16.1 11.7 14.1 88 1.1 NE 30 35 16 19 1013.4 1013.4 0.0
26/12:00am 15.8 13.1 13.5 86 1.3 E 20 26 11 14 1014.0 1014.0 0.0
 
Date/Time
CDT
Temp
°C
App
Temp
°C
Dew
Point
Rel
Hum
%
Delta-T
°C
Wind Press
QNH
hPa
Press
MSL
hPa
Rain
since 9 am
mm
Dir
 
Spd
km/h
Gust
km/h
Spd
kts
Gust
kts
25/11:30pm 15.4 12.5 12.9 85 1.4 ESE 20 24 11 13 1014.2 1014.2 0.0
25/11:00pm 15.2 12.2 12.5 84 1.5 ESE 20 24 11 13 1014.6 1014.6 0.0
25/10:30pm 15.2 11.4 12.3 83 1.6 ESE 24 28 13 15 1014.9 1014.9 0.0
25/10:00pm 15.4 11.8 12.0 80 1.8 SE 22 26 12 14 1015.2 1015.2 0.0
25/09:30pm 15.3 11.3 11.7 79 1.9 SE 24 28 13 15 1015.5 1015.4 0.0
25/09:00pm 15.4 11.8 11.8 79 1.9 SSE 22 30 12 16 1015.8 1015.7 0.0
25/08:30pm 15.4 11.3 11.6 78 2.0 S 24 26 13 14 1015.6 1015.5 0.0
25/08:00pm 15.6 11.2 11.6 77 2.2 S 26 30 14 16 1015.8 1015.7 0.0
25/07:30pm 15.9 11.9 11.7 76 2.3 SSE 24 28 13 15 1015.5 1015.4 0.0
25/07:00pm 16.2 12.6 11.8 75 2.4 S 22 26 12 14 1015.5 1015.4 0.0
25/06:30pm 16.4 13.1 11.6 73 2.6 S 20 24 11 13 1015.6 1015.5 0.0
25/06:00pm 17.4 13.9 12.1 71 2.9 SW 22 24 12 13 1016.0 1015.9 0.0
25/05:30pm 17.8 15.3 12.3 70 3.0 WSW 17 20 9 11 1016.0 1015.9 0.0
25/05:00pm 17.1 15.6 11.8 71 2.9 SW 11 19 6 10 1016.1 1016.0 0.0
25/04:30pm 17.9 16.2 12.4 70 3.1 SSW 13 17 7 9 1016.0 1015.9 0.0
25/04:00pm 17.5 16.0 12.0 70 3.0 SSW 11 17 6 9 1015.9 1015.8 0.0
25/03:30pm 17.6 16.2 12.1 70 3.0 SW 11 17 6 9 1016.2 1016.1 0.0
25/03:00pm 17.3 16.1 11.6 69 3.1 S 9 13 5 7 1016.3 1016.2 0.0
25/02:30pm 18.1 16.0 12.3 69 3.2 SSW 15 20 8 11 1016.6 1016.5 0.0
25/02:00pm 18.0 15.9 12.5 70 3.1 S 15 19 8 10 1016.6 1016.5 0.0
25/01:30pm 18.3 16.7 12.7 70 3.1 SSW 13 19 7 10 1017.0 1016.9 0.0
25/01:00pm 17.7 15.7 12.8 73 2.7 SSW 15 17 8 9 1017.3 1017.2 0.0
25/12:30pm 17.4 15.8 12.9 75 2.5 SSW 13 17 7 9 1017.2 1017.1 0.0
25/12:00pm 17.3 16.0 13.8 80 2.0 S 13 15 7 8 1017.7 1017.6 0.0
25/11:30am 16.8 15.4 13.3 80 2.0 SSW 13 15 7 8 1018.0 1017.9 0.0
25/11:00am 16.5 15.4 13.2 81 1.8 SSW 11 13 6 7 1018.0 1017.9 0.0
25/10:30am 16.4 14.9 13.1 81 1.8 SSW 13 15 7 8 1017.9 1017.8 0.0
25/10:00am 16.3 15.7 13.4 83 1.6 S 9 13 5 7 1017.8 1017.7 0.0
25/09:30am 16.0 15.0 13.3 84 1.5 S 11 13 6 7 1017.7 1017.6 0.0
25/09:00am 15.8 15.5 13.3 85 1.4 SSW 7 11 4 6 1017.9 1017.8 0.0
25/08:30am 15.6 14.9 13.3 86 1.3 S 9 9 5 5 1017.9 1017.8 0.0
25/08:00am 15.4 14.7 13.1 86 1.3 S 9 11 5 6 1018.0 1017.9 0.0
25/07:30am 15.2 14.1 13.1 87 1.2 S 11 13 6 7 1017.9 1017.8 0.0
25/07:00am 15.1 13.6 13.0 87 1.2 S 13 15 7 8 1017.5 1017.4 0.0
25/06:30am 15.1 13.2 13.0 87 1.2 SSE 15 19 8 10 1017.1 1017.0 0.0
25/06:00am 15.1 12.2 13.0 87 1.2 S 20 22 11 12 1016.8 1016.7 0.0
25/05:30am 15.0 12.3 12.9 87 1.2 SSE 19 20 10 11 1016.3 1016.2 0.0
25/05:00am 15.0 12.1 12.9 87 1.2 SSE 20 24 11 13 1016.1 1016.0 0.0
25/04:30am 15.0 12.1 13.0 88 1.1 SSE 20 26 11 14 1015.9 1015.8 0.0
25/04:00am 15.2 12.6 13.2 88 1.1 SSE 19 22 10 12 1016.0 1015.9 0.0
25/03:30am 15.1 12.8 13.1 88 1.1 SSE 17 22 9 12 1015.7 1015.6 0.0
25/03:00am 15.2 12.1 13.4 89 1.0 S 22 26 12 14 1015.8 1015.7 0.0
25/02:30am 15.1 12.0 13.3 89 1.0 S 22 28 12 15 1015.8 1015.7 0.0
25/02:00am 15.1 12.0 13.3 89 1.0 S 22 28 12 15 1015.7 1015.6 0.0
25/01:30am 15.1 12.0 13.3 89 1.0 S 22 26 12 14 1016.0 1015.9 0.0
25/01:00am 15.1 12.4 13.5 90 0.9 S 20 24 11 13 1016.2 1016.1 0.0
25/12:30am 15.2 12.5 13.6 90 0.9 SSE 20 24 11 13 1016.2 1016.1 0.0
25/12:00am 15.2 12.5 13.4 89 1.0 SSE 20 24 11 13 1016.1 1016.0 0.0
 
Date/Time
CDT
Temp
°C
App
Temp
°C
Dew
Point
Rel
Hum
%
Delta-T
°C
Wind Press
QNH
hPa
Press
MSL
hPa
Rain
since 9 am
mm
Dir
 
Spd
km/h
Gust
km/h
Spd
kts
Gust
kts
24/11:30pm 15.2 12.1 13.4 89 1.0 SSE 22 28 12 15 1016.3 1016.2 0.0
24/11:00pm 15.2 11.3 13.2 88 1.1 SSE 26 30 14 16 1016.4 1016.3 0.0
24/10:30pm 15.3 10.6 13.3 88 1.1 SSE 30 35 16 19 1016.4 1016.3 0.0
24/10:00pm 15.3 10.1 13.3 88 1.1 S 33 37 18 20 1016.3 1016.2 0.0
24/09:30pm 15.5 10.5 13.5 88 1.1 S 32 37 17 20 1016.0 1015.9 0.0
24/09:00pm 15.5 10.3 13.5 88 1.1 S 33 37 18 20 1015.5 1015.4 0.0
24/08:30pm 15.4 10.4 13.4 88 1.1 S 32 35 17 19 1014.9 1014.9 0.0
24/08:00pm 15.4 11.2 13.4 88 1.1 S 28 32 15 17 1014.8 1014.8 0.0
24/07:30pm 15.4 11.2 13.4 88 1.1 S 28 35 15 19 1014.6 1014.6 0.0
24/07:00pm 15.6 11.0 13.4 87 1.2 S 30 33 16 18 1014.4 1014.4 0.0
24/06:30pm 16.0 11.9 13.7 86 1.3 S 28 32 15 17 1014.1 1014.1 0.0
24/06:00pm 16.3 12.6 14.0 86 1.3 S 26 30 14 16 1013.9 1013.9 0.0
24/05:30pm 16.3 12.6 13.8 85 1.4 S 26 30 14 16 1013.8 1013.8 0.0
24/05:00pm 16.7 12.7 14.2 85 1.4 S 28 32 15 17 1013.5 1013.5 0.0
24/04:30pm 17.1 13.1 14.0 82 1.8 S 28 33 15 18 1013.4 1013.4 0.0
24/04:00pm 18.5 15.0 14.4 77 2.4 S 26 30 14 16 1013.4 1013.4 0.0
24/03:30pm 19.6 17.0 14.8 74 2.8 SSW 22 28 12 15 1013.5 1013.5 0.0
24/03:00pm 20.0 17.8 14.8 72 3.0 SSW 20 24 11 13 1013.6 1013.6 0.0
24/02:30pm 20.3 18.1 14.9 71 3.2 SSW 20 24 11 13 1013.8 1013.8 0.0
24/02:00pm 19.9 18.6 14.9 73 2.9 SSW 15 17 8 9 1013.8 1013.8 0.0
24/01:30pm 19.5 17.8 14.7 74 2.8 SW 17 20 9 11 1013.9 1013.9 0.0
24/01:00pm 19.7 17.8 15.1 75 2.7 WSW 19 20 10 11 1013.9 1013.9 0.0
24/12:30pm 19.2 18.2 15.5 79 2.2 WSW 15 17 8 9 1013.9 1013.9 0.0
24/12:00pm 19.2 19.0 15.7 80 2.1 W 11 15 6 8 1013.9 1013.9 0.0
24/11:30am 19.2 19.5 15.9 81 2.0 W 9 13 5 7 1013.9 1013.9 0.0
24/11:00am 19.0 19.7 16.2 84 1.7 WNW 7 9 4 5 1013.8 1013.8 0.0
24/10:30am 18.3 18.7 16.3 88 1.2 NW 9 11 5 6 1014.0 1014.0 0.0
24/10:00am 17.9 18.6 16.2 90 1.0 W 7 11 4 6 1013.9 1013.9 0.0
24/09:30am 17.2 17.8 15.7 91 0.9 NW 7 11 4 6 1013.7 1013.7 0.0
24/09:00am 17.2 17.1 16.1 93 0.7 N 11 13 6 7 1013.6 1013.6 0.0
24/08:30am 16.9 17.1 15.8 93 0.6 N 9 11 5 6 1013.6 1013.6 0.0
24/08:00am 16.7 16.5 15.6 93 0.6 N 11 15 6 8 1013.2 1013.2 0.0
24/07:30am 16.2 15.0 15.1 93 0.6 N 15 17 8 9 1013.1 1013.1 0.0
24/07:00am 15.5 14.8 14.4 93 0.6 N 11 13 6 7 1012.6 1012.6 0.0
24/06:30am 15.4 14.3 14.3 93 0.6 N 13 13 7 7 1012.4 1012.4 0.0
24/06:00am 15.5 14.1 14.4 93 0.6 N 15 17 8 9 1011.8 1011.8 0.0
24/05:30am 15.6 13.4 14.5 93 0.6 N 19 20 10 11 1011.8 1011.8 0.0
24/05:00am 15.9 12.5 14.8 93 0.6 N 26 30 14 16 1011.9 1011.9 0.0
24/04:30am 15.8 12.3 14.5 92 0.7 N 26 30 14 16 1011.8 1011.8 0.0
24/04:00am 15.7 11.4 14.4 92 0.7 N 30 33 16 18 1011.3 1011.3 0.0
24/03:30am 15.5 11.1 14.0 91 0.8 NNE 30 35 16 19 1011.3 1011.3 0.0
24/03:00am 15.5 11.5 14.0 91 0.8 NNE 28 33 15 18 1011.4 1011.4 0.0
24/02:30am 15.4 11.3 13.8 90 0.9 NE 28 35 15 19 1011.2 1011.2 0.0
24/02:00am 15.4 11.6 13.6 89 1.0 NE 26 32 14 17 1011.9 1011.9 0.0
24/01:30am 15.4 12.7 13.6 89 1.0 NE 20 26 11 14 1012.5 1012.5 0.0
24/01:00am 15.3 13.5 13.3 88 1.1 NNE 15 20 8 11 1013.4 1013.4 0.0
24/12:30am 15.4 14.0 13.4 88 1.1 NNE 13 19 7 10 1014.0 1014.0 0.0
24/12:00am 15.4 14.3 13.2 87 1.2 NE 11 15 6 8 1014.3 1014.3 0.0
 
Date/Time
CDT
Temp
°C
App
Temp
°C
Dew
Point
Rel
Hum
%
Delta-T
°C
Wind Press
QNH
hPa
Press
MSL
hPa
Rain
since 9 am
mm
Dir
 
Spd
km/h
Gust
km/h
Spd
kts
Gust
kts
23/11:30pm 15.1 13.6 13.0 87 1.2 E 13 15 7 8 1014.4 1014.4 0.0
23/11:00pm 15.3 13.4 13.0 86 1.3 ESE 15 19 8 10 1014.4 1014.4 0.0
23/10:30pm 15.3 13.0 13.0 86 1.3 ESE 17 20 9 11 1014.7 1014.7 0.0
23/10:00pm 15.4 12.8 13.1 86 1.3 SE 19 22 10 12 1014.9 1014.9 0.0
23/09:30pm 15.4 13.1 12.9 85 1.4 SSE 17 20 9 11 1015.1 1015.1 0.0
23/09:00pm 15.2 12.4 12.5 84 1.5 SSE 19 20 10 11 1014.9 1014.9 0.0
23/08:30pm 15.2 12.8 12.5 84 1.5 SSE 17 20 9 11 1015.0 1015.0 0.0
23/08:00pm 15.3 12.8 12.2 82 1.7 S 17 20 9 11 1015.1 1015.1 0.0
23/07:30pm 15.5 12.5 12.1 80 1.9 S 19 22 10 12 1014.9 1014.9 0.0
23/07:00pm 15.6 12.9 11.6 77 2.2 S 17 19 9 10 1015.5 1015.4 0.0
23/06:30pm 16.9 14.7 12.2 74 2.6 SW 15 19 8 10 1015.7 1015.6 0.0
23/06:00pm 16.8 14.5 11.9 73 2.7 WSW 15 17 8 9 1015.5 1015.4 0.0
23/05:30pm 17.2 14.7 12.3 73 2.7 WSW 17 19 9 10 1015.7 1015.6 0.0
23/05:00pm 16.7 14.7 11.6 72 2.8 WSW 13 17 7 9 1015.7 1015.6 0.0
23/04:30pm 17.1 16.0 11.8 71 2.9 SSW 9 13 5 7 1015.6 1015.5 0.0
23/04:00pm 16.8 15.9 11.5 71 2.9 SSW 7 9 4 5 1016.0 1015.9 0.0
23/03:30pm 16.9 16.1 11.6 71 2.9 S 7 9 4 5 1016.2 1016.1 0.0
23/03:00pm 17.3 15.8 11.8 70 3.0 ESE 11 15 6 8 1016.0 1015.9 0.0
23/02:30pm 17.2 14.9 11.7 70 3.0 E 15 19 8 10 1016.2 1016.1 0.0
23/02:00pm 17.5 15.8 12.6 73 2.7 E 13 17 7 9 1017.0 1016.9 0.0
23/01:30pm 16.7 14.6 12.3 75 2.4 E 15 19 8 10 1017.3 1017.2 0.0
23/01:00pm 16.3 13.7 11.9 75 2.4 E 17 20 9 11 1017.4 1017.3 0.0
23/12:30pm 16.6 14.1 12.4 76 2.3 E 17 22 9 12 1017.8 1017.7 0.0
23/12:00pm 16.6 13.7 12.2 75 2.4 E 19 24 10 13 1017.9 1017.8 0.0
23/11:30am 16.4 13.5 12.4 77 2.2 E 19 24 10 13 1018.2 1018.1 0.0
23/11:00am 15.9 12.9 11.9 77 2.2 E 19 20 10 11 1018.3 1018.2 0.0
23/10:30am 15.7 12.6 12.3 80 1.9 ESE 20 24 11 13 1018.6 1018.5 0.0
23/10:00am 15.2 12.6 12.0 81 1.7 ESE 17 20 9 11 1019.0 1018.9 0.0
23/09:30am 15.1 11.9 11.9 81 1.7 ESE 20 24 11 13 1019.0 1018.9 0.0
23/09:00am 15.0 11.8 12.0 82 1.6 ESE 20 26 11 14 1018.9 1018.8 0.0
23/08:30am 14.6 11.3 11.7 83 1.6 ESE 20 26 11 14 1019.1 1019.0 0.0

Other Formats:

Comma delimited format used in spreadsheet applications
http://www.bom.gov.au/fwo/IDS60801/IDS60801.94804.axf

JavaScript Object Notation format (JSON) in row-major order
http://www.bom.gov.au/fwo/IDS60801/IDS60801.94804.json